createdAt,value
2023-03-19T03:18:30.484Z,5.49
2023-03-19T03:22:13.206Z,5.49
2023-03-19T03:27:13.591Z,5.46
2023-03-19T03:32:13.772Z,5.44
2023-03-19T03:37:13.621Z,5.41
2023-03-19T03:42:13.386Z,5.39
2023-03-19T03:47:14.569Z,5.39
2023-03-19T03:52:13.174Z,5.30
2023-03-19T03:57:13.444Z,5.27
2023-03-19T04:00:55.019Z,5.28
2023-03-19T04:02:13.391Z,5.28
2023-03-19T04:07:13.522Z,5.23
2023-03-19T04:12:13.805Z,5.08
2023-03-19T04:16:10.374Z,5.02
2023-03-19T04:17:13.320Z,5.02
2023-03-19T04:22:13.385Z,4.97
2023-03-19T04:27:13.742Z,4.96
2023-03-19T04:32:13.171Z,4.90
2023-03-19T04:37:13.204Z,4.87
2023-03-19T04:40:30.739Z,4.81
2023-03-19T04:42:13.138Z,4.81
2023-03-19T04:47:13.249Z,4.72
2023-03-19T04:48:40.822Z,4.67
2023-03-19T04:52:13.814Z,4.67
2023-03-19T04:57:13.104Z,4.58
2023-03-19T05:00:45.981Z,4.58
2023-03-19T08:05:01.359Z,26.46
2023-03-19T08:06:31.769Z,26.46
2023-03-19T08:11:31.733Z,25.30
2023-03-19T08:16:31.905Z,25.23
2023-03-19T08:21:32.689Z,24.78
2023-03-19T08:26:31.911Z,24.43
2023-03-19T08:31:32.018Z,24.10
2023-03-19T08:36:31.315Z,24.07
2023-03-19T08:41:31.502Z,24.14
2023-03-19T08:46:25.939Z,23.44
2023-03-19T19:42:02.938Z,10.38
2023-03-19T19:42:16.764Z,10.38
2023-03-19T19:47:14.831Z,10.37
2023-03-19T19:52:16.286Z,10.38
2023-03-19T19:57:17.958Z,10.41
2023-03-19T20:02:20.220Z,10.39
2023-03-19T20:07:14.189Z,10.35
2023-03-19T20:12:19.434Z,10.35
2023-03-19T20:17:15.216Z,10.37
2023-03-19T20:22:14.259Z,10.34
2023-03-19T20:27:17.800Z,10.32
2023-03-19T20:32:25.992Z,10.28
2023-03-19T20:37:13.959Z,10.22
2023-03-19T20:42:15.029Z,10.13
2023-03-19T20:47:16.252Z,10.11
2023-03-19T20:52:15.422Z,10.04
2023-03-19T20:57:16.689Z,9.97
2023-03-19T21:02:16.069Z,9.93
2023-03-19T21:07:26.455Z,9.87
2023-03-19T21:12:24.433Z,9.80
2023-03-19T21:17:13.789Z,9.67
2023-03-19T21:22:17.991Z,9.63
2023-03-19T21:27:20.853Z,9.55
2023-03-19T21:32:17.284Z,9.52
2023-03-19T21:37:15.190Z,9.44
2023-03-19T21:42:18.158Z,9.32
2023-03-19T21:47:17.916Z,9.28
2023-03-19T21:52:16.690Z,9.19
2023-03-19T21:57:15.194Z,9.12
2023-03-19T22:02:33.651Z,9.07
2023-03-19T22:07:13.641Z,9.08
2023-03-19T22:12:24.138Z,9.07
2023-03-19T22:17:13.782Z,9.10
2023-03-19T22:22:13.677Z,9.13
2023-03-19T22:27:16.061Z,9.17
2023-03-19T22:32:15.436Z,9.22
2023-03-19T22:37:25.341Z,9.27
2023-03-19T22:42:13.874Z,9.30
2023-03-19T22:47:18.879Z,9.32
2023-03-19T22:52:13.811Z,9.34
2023-03-19T22:57:16.557Z,9.35
2023-03-19T23:02:13.769Z,9.36
2023-03-19T23:07:13.804Z,9.33
2023-03-19T23:12:14.733Z,9.31
2023-03-19T23:17:16.456Z,9.22
2023-03-19T23:22:15.533Z,9.06
2023-03-19T23:27:21.873Z,8.93
2023-03-19T23:32:13.848Z,8.88
2023-03-19T23:37:13.670Z,8.79
2023-03-19T23:42:25.253Z,8.74
2023-03-19T23:47:14.027Z,8.64
2023-03-19T23:52:13.729Z,8.54
2023-03-19T23:57:15.313Z,8.44
